createdAt,value
2018-12-09T00:01:48.735Z,17.90
2018-12-09T00:04:17.454Z,17.90
2018-12-09T00:06:45.974Z,18.00
2018-12-09T00:09:14.478Z,18.00
2018-12-09T00:11:42.995Z,18.00
2018-12-09T00:14:11.492Z,17.90
2018-12-09T00:16:40.260Z,17.90
2018-12-09T00:19:08.759Z,17.90
2018-12-09T00:21:37.632Z,17.90
2018-12-09T00:24:06.158Z,17.90
2018-12-09T00:26:34.770Z,17.90
2018-12-09T00:29:03.451Z,17.90
2018-12-09T00:31:32.087Z,17.80
2018-12-09T00:34:00.567Z,17.80
2018-12-09T00:36:29.054Z,17.80
2018-12-09T00:38:57.540Z,17.80
2018-12-09T00:41:26.028Z,17.80
2018-12-09T00:43:54.650Z,17.80
2018-12-09T00:46:23.146Z,17.80
2018-12-09T00:48:51.656Z,17.80
2018-12-09T00:51:20.300Z,17.80
2018-12-09T00:53:48.786Z,17.80
2018-12-09T00:56:17.305Z,17.70
2018-12-09T00:58:45.803Z,17.70
2018-12-09T01:01:14.338Z,17.70
2018-12-09T01:03:43.155Z,17.70
2018-12-09T01:15:55.191Z,17.60
2018-12-09T01:18:23.695Z,17.60
2018-12-09T01:20:52.371Z,17.60
2018-12-09T01:23:20.871Z,17.50
2018-12-09T01:25:49.354Z,17.60
2018-12-09T01:28:17.843Z,17.60
2018-12-09T01:30:46.468Z,17.60
2018-12-09T01:33:15.015Z,17.70
2018-12-09T01:35:43.494Z,17.70
2018-12-09T01:38:12.047Z,17.70
2018-12-09T01:40:45.934Z,17.70
2018-12-09T01:43:14.527Z,17.70
2018-12-09T01:45:43.295Z,17.70
2018-12-09T01:48:11.808Z,17.70
2018-12-09T01:50:40.551Z,17.70
2018-12-09T01:53:20.623Z,17.70
2018-12-09T01:55:49.111Z,17.70
2018-12-09T01:58:17.724Z,17.70
2018-12-09T02:00:46.202Z,17.70
2018-12-09T02:03:15.243Z,17.70
2018-12-09T02:05:43.731Z,17.70
2018-12-09T02:08:12.347Z,17.70
2018-12-09T02:10:40.863Z,17.70
2018-12-09T02:13:09.375Z,17.60
2018-12-09T02:15:38.054Z,17.60
2018-12-09T02:18:06.703Z,17.60
2018-12-09T02:20:35.331Z,17.60
2018-12-09T02:23:04.118Z,17.60
2018-12-09T02:25:32.649Z,17.60
2018-12-09T02:28:01.240Z,17.60
2018-12-09T02:30:29.978Z,17.50
2018-12-09T02:32:58.466Z,17.50
2018-12-09T02:35:27.840Z,17.50
2018-12-09T02:37:56.471Z,17.40
2018-12-09T02:40:24.968Z,17.40
2018-12-09T02:42:53.457Z,17.40
2018-12-09T02:45:21.960Z,17.40
2018-12-09T02:47:50.508Z,17.40
2018-12-09T02:50:19.012Z,17.40
2018-12-09T02:52:47.496Z,17.40
2018-12-09T02:55:16.156Z,17.40
2018-12-09T02:57:44.963Z,17.40
2018-12-09T03:00:14.434Z,17.40
2018-12-09T03:02:43.045Z,17.30
2018-12-09T03:05:11.675Z,17.30
2018-12-09T03:07:40.219Z,17.40
2018-12-09T03:10:08.715Z,17.40
2018-12-09T03:12:37.199Z,17.40
2018-12-09T03:15:06.084Z,17.40
2018-12-09T03:17:34.581Z,17.40
2018-12-09T03:20:03.979Z,17.40
2018-12-09T03:22:32.467Z,17.40
2018-12-09T03:25:00.951Z,17.50
2018-12-09T03:27:29.444Z,17.50
2018-12-09T03:29:57.963Z,17.50
2018-12-09T03:32:26.781Z,17.50
2018-12-09T03:34:55.522Z,17.50
2018-12-09T03:37:24.301Z,17.60
2018-12-09T03:39:52.924Z,17.50
2018-12-09T03:42:22.076Z,17.50
2018-12-09T03:44:50.594Z,17.50
2018-12-09T03:47:19.131Z,17.60
2018-12-09T03:49:47.680Z,17.50
2018-12-09T03:52:16.490Z,17.50
2018-12-09T03:54:44.963Z,17.50
2018-12-09T03:57:13.591Z,17.50
2018-12-09T03:59:42.089Z,17.50
2018-12-09T04:02:10.598Z,17.50
2018-12-09T04:04:39.130Z,17.40
2018-12-09T04:07:07.620Z,17.40
2018-12-09T04:14:11.924Z,17.40
2018-12-09T04:16:40.764Z,17.40
2018-12-09T04:19:09.279Z,17.40
2018-12-09T04:21:37.783Z,17.30
2018-12-09T04:24:06.420Z,17.30
2018-12-09T04:26:34.925Z,17.30
2018-12-09T04:29:03.447Z,17.30
2018-12-09T04:31:32.078Z,17.30
2018-12-09T04:34:00.852Z,17.30
2018-12-09T04:36:29.566Z,17.30
2018-12-09T04:38:58.065Z,17.30
2018-12-09T04:41:26.654Z,17.20
2018-12-09T04:43:55.371Z,17.20
2018-12-09T04:46:23.868Z,17.20
2018-12-09T04:48:52.363Z,17.30
2018-12-09T04:51:21.040Z,17.30
2018-12-09T04:53:49.520Z,17.30
2018-12-09T04:56:18.011Z,17.30
2018-12-09T04:59:25.763Z,17.40
2018-12-09T05:01:54.294Z,17.40
2018-12-09T05:04:22.909Z,17.40
2018-12-09T05:06:51.397Z,17.40
2018-12-09T05:09:19.976Z,17.40
2018-12-09T05:11:48.919Z,17.40
2018-12-09T05:14:17.414Z,17.40
2018-12-09T05:16:45.951Z,17.40
2018-12-09T05:19:14.558Z,17.40
2018-12-09T05:21:43.068Z,17.40
2018-12-09T05:24:11.551Z,17.40
2018-12-09T05:26:40.055Z,17.40
2018-12-09T05:29:08.605Z,17.40
2018-12-09T05:31:37.175Z,17.40
2018-12-09T05:34:05.666Z,17.40
2018-12-09T05:36:34.150Z,17.40
2018-12-09T05:39:02.735Z,17.40
2018-12-09T05:41:31.244Z,17.40
2018-12-09T05:43:59.927Z,17.30
2018-12-09T05:46:28.558Z,17.30
2018-12-09T05:48:57.058Z,17.30
2018-12-09T05:51:25.715Z,17.30
2018-12-09T05:53:54.260Z,17.30
2018-12-09T05:56:23.012Z,17.30
2018-12-09T05:58:51.922Z,17.20
2018-12-09T06:01:20.708Z,17.20
2018-12-09T06:03:49.206Z,17.20
2018-12-09T06:06:17.724Z,17.20
2018-12-09T06:08:46.386Z,17.20
2018-12-09T06:11:15.254Z,17.20
2018-12-09T06:13:43.783Z,17.30
2018-12-09T06:16:12.310Z,17.20
2018-12-09T06:18:40.843Z,17.20
2018-12-09T06:21:09.551Z,17.20
2018-12-09T06:23:38.055Z,17.30
2018-12-09T06:26:06.743Z,17.30
2018-12-09T06:28:35.263Z,17.30
2018-12-09T06:31:06.299Z,17.30
2018-12-09T06:33:37.520Z,17.30
2018-12-09T06:36:08.617Z,17.30
2018-12-09T06:38:40.074Z,17.30
2018-12-09T06:41:12.222Z,17.40
2018-12-09T06:43:43.281Z,17.40
2018-12-09T06:46:13.889Z,17.40
2018-12-09T06:48:42.793Z,17.40
2018-12-09T06:51:14.419Z,17.40
2018-12-09T06:53:42.982Z,17.40
2018-12-09T06:56:11.739Z,17.30
2018-12-09T06:58:40.218Z,17.40
2018-12-09T07:01:08.716Z,17.40
2018-12-09T07:03:37.216Z,17.40
2018-12-09T07:06:05.747Z,17.40
2018-12-09T07:08:34.240Z,17.40
2018-12-09T07:11:02.770Z,17.40
2018-12-09T07:13:31.371Z,17.40
2018-12-09T07:15:59.862Z,17.40
2018-12-09T07:18:28.335Z,17.40
2018-12-09T07:20:56.979Z,17.40
2018-12-09T07:23:25.462Z,17.50
2018-12-09T07:25:54.303Z,17.50
2018-12-09T07:28:22.929Z,17.40
2018-12-09T07:30:51.439Z,17.40
2018-12-09T07:33:19.956Z,17.40
2018-12-09T07:35:48.517Z,17.40
2018-12-09T07:38:17.016Z,17.40
2018-12-09T07:40:45.519Z,17.40
2018-12-09T07:43:14.127Z,17.30
2018-12-09T07:45:42.614Z,17.30
2018-12-09T07:48:11.127Z,17.30
2018-12-09T07:50:39.654Z,17.30
2018-12-09T07:53:08.320Z,17.20
2018-12-09T07:55:36.831Z,17.20
2018-12-09T07:58:05.388Z,17.20
2018-12-09T08:00:33.891Z,17.20
2018-12-09T08:03:02.367Z,17.20
2018-12-09T08:05:30.889Z,17.20
2018-12-09T08:07:59.612Z,17.30
2018-12-09T08:10:28.112Z,17.30
2018-12-09T08:12:56.771Z,17.30
2018-12-09T08:15:25.451Z,17.40
2018-12-09T08:17:54.059Z,17.40
2018-12-09T08:20:22.555Z,17.50
2018-12-09T08:22:51.183Z,17.50
2018-12-09T08:25:19.658Z,17.50
2018-12-09T08:27:48.127Z,17.50
2018-12-09T08:30:16.875Z,17.60
2018-12-09T08:32:45.499Z,17.70
2018-12-09T08:35:15.302Z,17.90
2018-12-09T08:37:44.133Z,18.00
2018-12-09T08:40:12.758Z,18.10
2018-12-09T08:42:41.367Z,18.00
2018-12-09T08:45:10.121Z,18.00
2018-12-09T08:47:38.746Z,17.90
2018-12-09T08:50:07.374Z,17.60
2018-12-09T08:52:36.018Z,17.40
2018-12-09T08:55:04.803Z,17.30
2018-12-09T08:57:33.295Z,17.20
2018-12-09T09:00:01.778Z,17.30
2018-12-09T09:02:30.399Z,17.30
2018-12-09T09:04:59.091Z,17.30
2018-12-09T09:07:27.843Z,17.40
2018-12-09T09:09:56.493Z,17.30
2018-12-09T09:12:24.987Z,17.30
2018-12-09T09:14:53.631Z,17.40
2018-12-09T09:17:22.123Z,17.40
2018-12-09T09:19:50.591Z,17.40
2018-12-09T09:22:19.136Z,17.50
2018-12-09T09:24:47.611Z,17.40
2018-12-09T09:27:16.119Z,17.40
2018-12-09T09:32:24.344Z,17.40
2018-12-09T09:34:52.958Z,17.40
2018-12-09T09:37:21.575Z,17.40
2018-12-09T09:39:50.203Z,17.40
2018-12-09T09:42:18.703Z,17.50
2018-12-09T09:44:47.194Z,17.50
2018-12-09T09:47:15.739Z,17.50
2018-12-09T09:49:44.279Z,17.50
2018-12-09T09:52:12.818Z,17.50
2018-12-09T09:54:41.312Z,17.50
2018-12-09T09:57:09.830Z,17.50
2018-12-09T09:59:38.441Z,17.50
2018-12-09T10:02:07.052Z,17.50
2018-12-09T10:04:35.651Z,17.60
2018-12-09T10:07:04.279Z,17.60
2018-12-09T10:09:32.767Z,17.60
2018-12-09T10:12:01.251Z,17.70
2018-12-09T10:14:29.867Z,17.70
2018-12-09T10:16:58.507Z,17.70
2018-12-09T10:19:27.230Z,17.70
2018-12-09T10:21:55.851Z,17.70
2018-12-09T10:24:24.358Z,17.70
2018-12-09T10:26:52.871Z,17.70
2018-12-09T10:29:21.370Z,17.70
2018-12-09T10:31:49.851Z,17.70
2018-12-09T10:34:18.432Z,17.70
2018-12-09T10:36:46.911Z,17.60
2018-12-09T10:39:15.539Z,17.60
2018-12-09T10:41:44.027Z,17.60
2018-12-09T10:44:12.536Z,17.60
2018-12-09T10:46:41.010Z,17.60
2018-12-09T10:49:09.523Z,17.50
2018-12-09T10:51:38.003Z,17.50
2018-12-09T10:54:06.499Z,17.60
2018-12-09T10:56:35.007Z,17.60
2018-12-09T10:59:03.934Z,17.50
2018-12-09T11:01:37.801Z,17.50
2018-12-09T11:04:06.683Z,17.50
2018-12-09T11:06:35.458Z,17.50
2018-12-09T11:09:05.903Z,17.50
2018-12-09T11:11:34.590Z,17.40
2018-12-09T11:14:03.107Z,17.40
2018-12-09T11:16:31.613Z,17.40
2018-12-09T11:19:00.174Z,17.40
2018-12-09T11:21:30.818Z,17.40
2018-12-09T11:23:59.487Z,17.50
2018-12-09T11:26:28.208Z,17.40
2018-12-09T11:28:56.714Z,17.40
2018-12-09T11:34:04.368Z,17.40
2018-12-09T11:36:32.943Z,17.40
2018-12-09T11:39:01.563Z,17.30
2018-12-09T11:41:30.243Z,17.30
2018-12-09T11:43:58.948Z,17.30
2018-12-09T11:46:27.495Z,17.20
2018-12-09T11:48:56.026Z,17.40
2018-12-09T11:51:24.608Z,17.40
2018-12-09T11:53:53.214Z,17.40
2018-12-09T11:56:21.791Z,17.50
2018-12-09T11:58:50.467Z,17.40
2018-12-09T12:01:19.017Z,17.40
2018-12-09T12:03:47.572Z,17.40
2018-12-09T12:06:16.201Z,17.40
2018-12-09T12:08:44.973Z,17.40
2018-12-09T12:11:13.602Z,17.40
2018-12-09T12:13:42.164Z,17.40
2018-12-09T12:16:10.699Z,17.40
2018-12-09T12:18:39.282Z,17.40
2018-12-09T12:21:07.814Z,17.50
2018-12-09T12:23:36.569Z,17.50
2018-12-09T12:26:05.354Z,17.50
2018-12-09T12:28:34.075Z,17.50
2018-12-09T12:31:02.716Z,17.50
2018-12-09T12:33:31.250Z,17.40
2018-12-09T12:35:59.982Z,17.50
2018-12-09T12:38:28.568Z,17.50
2018-12-09T12:40:57.238Z,17.50
2018-12-09T12:43:25.926Z,17.50
2018-12-09T12:45:54.492Z,17.50
2018-12-09T12:48:23.096Z,17.50
2018-12-09T12:50:51.695Z,17.50
2018-12-09T12:53:20.361Z,17.50
2018-12-09T12:55:48.946Z,17.50
2018-12-09T12:58:17.476Z,17.50
2018-12-09T13:00:46.098Z,17.50
2018-12-09T13:03:14.663Z,17.50
2018-12-09T13:05:43.443Z,17.50
2018-12-09T13:08:12.434Z,17.40
2018-12-09T13:10:40.979Z,17.50
2018-12-09T13:13:09.559Z,17.50
2018-12-09T13:15:38.208Z,17.50
2018-12-09T13:18:06.818Z,17.50
2018-12-09T13:20:35.386Z,17.60
2018-12-09T13:23:04.019Z,17.60
2018-12-09T13:25:32.632Z,17.60
2018-12-09T13:28:01.613Z,17.60
2018-12-09T13:30:30.172Z,17.60
2018-12-09T13:32:58.749Z,17.60
2018-12-09T13:35:27.303Z,17.60
2018-12-09T13:37:55.915Z,17.60
2018-12-09T13:40:24.475Z,17.70
2018-12-09T13:42:53.055Z,17.70
2018-12-09T13:45:21.759Z,17.70
2018-12-09T13:47:50.608Z,17.70
2018-12-09T13:50:19.183Z,17.70
2018-12-09T13:52:47.851Z,17.70
2018-12-09T13:55:16.446Z,17.70
2018-12-09T13:57:45.108Z,17.80
2018-12-09T14:00:18.008Z,17.90
2018-12-09T14:02:46.558Z,18.00
2018-12-09T14:05:15.116Z,18.00
2018-12-09T14:07:44.719Z,18.00
2018-12-09T14:10:13.334Z,18.00
2018-12-09T14:12:41.926Z,18.00
2018-12-09T14:15:10.500Z,18.00
2018-12-09T14:17:39.107Z,18.10
2018-12-09T14:20:09.251Z,18.00
2018-12-09T14:22:37.797Z,18.00
2018-12-09T14:25:07.087Z,18.00
2018-12-09T14:27:36.582Z,17.90
2018-12-09T14:30:06.591Z,18.00
2018-12-09T14:32:35.161Z,18.00
2018-12-09T14:35:05.016Z,18.00
2018-12-09T14:37:33.563Z,18.00
2018-12-09T14:40:02.217Z,18.00
2018-12-09T14:42:30.773Z,18.00
2018-12-09T14:44:59.461Z,18.00
2018-12-09T14:47:28.089Z,18.00
2018-12-09T14:49:56.627Z,18.00
2018-12-09T14:52:25.252Z,18.00
2018-12-09T14:54:53.819Z,18.00
2018-12-09T14:57:22.651Z,18.00
2018-12-09T14:59:51.218Z,18.00
2018-12-09T15:02:19.763Z,17.90
2018-12-09T15:04:48.359Z,17.90
2018-12-09T15:07:17.062Z,17.90
2018-12-09T15:09:46.537Z,17.80
2018-12-09T15:12:15.615Z,17.70
2018-12-09T15:14:44.184Z,17.70
2018-12-09T15:17:12.750Z,17.70
2018-12-09T15:19:41.283Z,17.70
2018-12-09T15:22:09.819Z,17.70
2018-12-09T15:24:41.546Z,17.70
2018-12-09T15:27:09.073Z,17.70
2018-12-09T15:29:37.590Z,17.70
2018-12-09T15:32:06.126Z,17.70
2018-12-09T15:34:34.801Z,17.70
2018-12-09T15:37:03.346Z,17.70
2018-12-09T15:39:31.897Z,17.80
2018-12-09T15:42:00.491Z,17.80
2018-12-09T15:44:29.082Z,17.80
2018-12-09T15:46:57.635Z,17.80
2018-12-09T15:49:26.186Z,17.80
2018-12-09T15:51:54.743Z,17.80
2018-12-09T15:54:23.579Z,17.80
2018-12-09T15:56:52.131Z,17.80
2018-12-09T15:59:20.954Z,17.80
2018-12-09T16:01:49.830Z,17.90
2018-12-09T16:04:18.496Z,18.00
2018-12-09T16:06:47.167Z,18.00
2018-12-09T16:09:15.742Z,18.10
2018-12-09T16:11:44.342Z,18.10
2018-12-09T16:14:12.892Z,18.20
2018-12-09T16:16:41.445Z,18.20
2018-12-09T16:19:09.983Z,18.20
2018-12-09T16:21:38.573Z,18.20
2018-12-09T16:24:07.177Z,18.20
2018-12-09T16:26:35.699Z,18.20
2018-12-09T16:29:04.215Z,18.20
2018-12-09T16:31:32.834Z,18.20
2018-12-09T16:34:01.408Z,18.10
2018-12-09T16:36:30.001Z,18.10
2018-12-09T16:38:58.703Z,18.10
2018-12-09T16:41:27.268Z,18.10
2018-12-09T16:43:55.992Z,18.10
2018-12-09T16:46:24.575Z,18.10
2018-12-09T16:48:53.109Z,18.10
2018-12-09T16:51:21.666Z,18.10
2018-12-09T16:53:51.414Z,18.10
2018-12-09T16:56:20.114Z,18.10
2018-12-09T16:58:48.691Z,18.10
2018-12-09T17:01:17.262Z,18.00
2018-12-09T17:03:45.809Z,18.10
2018-12-09T17:06:14.561Z,18.10
2018-12-09T17:08:43.170Z,18.10
2018-12-09T17:11:11.757Z,18.10
2018-12-09T17:13:40.387Z,18.00
2018-12-09T17:16:08.982Z,18.00
2018-12-09T17:18:37.528Z,18.00
2018-12-09T17:21:06.086Z,18.00
2018-12-09T17:23:34.636Z,18.00
2018-12-09T17:26:03.159Z,18.00
2018-12-09T17:28:31.816Z,18.00
2018-12-09T17:31:00.370Z,18.00
2018-12-09T17:33:29.141Z,18.00
2018-12-09T17:35:57.659Z,18.00
2018-12-09T17:38:26.227Z,18.10
2018-12-09T17:40:54.763Z,18.10
2018-12-09T17:43:23.314Z,18.10
2018-12-09T17:45:53.079Z,18.10
2018-12-09T17:48:21.707Z,18.10
2018-12-09T17:50:50.248Z,18.20
2018-12-09T17:53:18.833Z,18.20
2018-12-09T17:55:47.393Z,18.30
2018-12-09T17:58:15.907Z,18.30
2018-12-09T18:00:44.514Z,18.40
2018-12-09T18:03:13.178Z,18.50
2018-12-09T18:05:41.742Z,18.40
2018-12-09T18:08:10.284Z,18.40
2018-12-09T18:10:38.811Z,18.30
2018-12-09T18:13:07.439Z,18.30
2018-12-09T18:15:35.996Z,18.30
2018-12-09T18:18:04.634Z,18.30
2018-12-09T18:20:33.291Z,18.30
2018-12-09T18:23:01.837Z,18.20
2018-12-09T18:25:30.404Z,18.20
2018-12-09T18:27:58.979Z,18.20
2018-12-09T18:30:27.731Z,18.20
2018-12-09T18:32:56.388Z,18.10
2018-12-09T18:35:25.014Z,18.10
2018-12-09T18:37:54.229Z,18.10
2018-12-09T18:40:22.856Z,18.10
2018-12-09T18:42:51.507Z,18.00
2018-12-09T18:45:20.095Z,18.00
2018-12-09T18:47:48.667Z,18.00
2018-12-09T18:50:17.193Z,18.00
2018-12-09T18:52:47.443Z,18.00
2018-12-09T18:55:16.015Z,17.90
2018-12-09T18:57:44.620Z,18.00
2018-12-09T19:00:13.276Z,18.00
2018-12-09T19:02:41.985Z,17.90
2018-12-09T19:05:10.503Z,17.90
2018-12-09T19:07:39.103Z,17.90
2018-12-09T19:10:07.839Z,17.90
2018-12-09T19:12:36.670Z,17.90
2018-12-09T19:15:05.690Z,17.80
2018-12-09T19:17:34.298Z,17.90
2018-12-09T19:20:02.864Z,17.80
2018-12-09T19:22:31.645Z,17.80
2018-12-09T19:25:00.207Z,17.80
2018-12-09T19:27:28.778Z,17.80
2018-12-09T19:29:57.300Z,17.80
2018-12-09T19:32:25.870Z,17.90
2018-12-09T19:34:54.485Z,18.00
2018-12-09T19:37:23.148Z,18.00
2018-12-09T19:39:51.735Z,18.00
2018-12-09T19:42:20.292Z,18.10
2018-12-09T19:44:48.843Z,18.10
2018-12-09T19:47:17.501Z,18.10
2018-12-09T19:49:46.139Z,18.10
2018-12-09T19:52:14.792Z,18.20
2018-12-09T19:54:43.407Z,18.20
2018-12-09T19:57:12.067Z,18.20
2018-12-09T19:59:40.679Z,18.30
2018-12-09T20:02:09.241Z,18.30
2018-12-09T20:04:37.895Z,18.30
2018-12-09T20:07:06.464Z,18.30
2018-12-09T20:09:35.141Z,18.20
2018-12-09T20:12:03.818Z,18.10
2018-12-09T20:14:32.425Z,18.10
2018-12-09T20:17:01.107Z,18.10
2018-12-09T20:19:29.681Z,18.20
2018-12-09T20:21:58.235Z,18.10
2018-12-09T20:24:26.820Z,18.10
2018-12-09T20:26:55.462Z,18.10
2018-12-09T20:29:24.033Z,18.10
2018-12-09T20:31:52.779Z,18.10
2018-12-09T20:34:21.401Z,18.10
2018-12-09T20:36:49.969Z,18.10
2018-12-09T20:39:18.536Z,18.10
2018-12-09T20:41:47.183Z,18.10
2018-12-09T20:44:15.903Z,18.00
2018-12-09T20:46:44.454Z,18.10
2018-12-09T20:49:13.003Z,18.10
2018-12-09T20:51:41.704Z,18.00
2018-12-09T20:54:10.315Z,18.00
2018-12-09T20:56:38.880Z,18.00
2018-12-09T20:59:07.487Z,18.00
2018-12-09T21:01:36.032Z,18.00
2018-12-09T21:04:04.790Z,17.90
2018-12-09T21:06:33.502Z,17.90
2018-12-09T21:09:02.036Z,17.90
2018-12-09T21:11:30.672Z,17.90
2018-12-09T21:13:59.173Z,17.90
2018-12-09T21:16:27.896Z,17.90
2018-12-09T21:18:56.596Z,17.90
2018-12-09T21:21:25.155Z,17.90
2018-12-09T21:23:53.723Z,18.00
2018-12-09T21:26:22.265Z,17.90
2018-12-09T21:28:50.940Z,18.00
2018-12-09T21:31:19.533Z,18.00
2018-12-09T21:33:48.093Z,18.00
2018-12-09T21:36:16.642Z,18.00
2018-12-09T21:38:45.272Z,18.00
2018-12-09T21:41:13.855Z,18.00
2018-12-09T21:43:42.422Z,18.00
2018-12-09T21:46:11.038Z,18.00
2018-12-09T21:48:39.582Z,18.00
2018-12-09T21:51:08.245Z,18.00
2018-12-09T21:53:36.893Z,18.00
2018-12-09T21:56:05.439Z,17.90
2018-12-09T21:58:34.148Z,17.90
2018-12-09T22:01:02.752Z,17.90
2018-12-09T22:03:31.342Z,17.90
2018-12-09T22:05:59.881Z,17.90
2018-12-09T22:08:28.483Z,17.90
2018-12-09T22:10:57.021Z,17.90
2018-12-09T22:13:25.572Z,17.80
2018-12-09T22:15:54.148Z,17.70
2018-12-09T22:18:22.691Z,17.70
2018-12-09T22:20:51.253Z,17.80
2018-12-09T22:23:19.992Z,17.70
2018-12-09T22:25:48.571Z,17.70
2018-12-09T22:28:17.087Z,17.80
2018-12-09T22:30:45.737Z,17.70
2018-12-09T22:33:14.321Z,17.70
2018-12-09T22:35:42.906Z,17.60
2018-12-09T22:38:11.507Z,17.60
2018-12-09T22:40:40.095Z,17.50
2018-12-09T22:43:08.666Z,17.50
2018-12-09T22:45:37.220Z,17.40
2018-12-09T22:48:05.832Z,17.40
2018-12-09T22:50:34.400Z,17.40
2018-12-09T22:53:02.952Z,17.30
2018-12-09T22:55:31.527Z,17.30
2018-12-09T22:58:00.095Z,17.30
2018-12-09T23:00:29.588Z,17.20
2018-12-09T23:03:04.545Z,17.20
2018-12-09T23:05:33.214Z,17.20
2018-12-09T23:08:01.745Z,17.20
2018-12-09T23:10:30.334Z,17.20
2018-12-09T23:12:58.851Z,17.10
2018-12-09T23:15:27.411Z,17.20
2018-12-09T23:17:56.032Z,17.20
2018-12-09T23:20:25.173Z,17.20
2018-12-09T23:22:53.709Z,17.20
2018-12-09T23:25:22.278Z,17.20
2018-12-09T23:27:50.892Z,17.20
2018-12-09T23:30:19.446Z,17.20
2018-12-09T23:32:47.955Z,17.20
2018-12-09T23:35:16.494Z,17.20
2018-12-09T23:37:45.123Z,17.20
2018-12-09T23:40:13.754Z,17.30
2018-12-09T23:42:42.399Z,17.20
2018-12-09T23:45:11.146Z,17.20
2018-12-09T23:47:39.694Z,17.20
2018-12-09T23:50:08.270Z,17.20
2018-12-09T23:52:37.041Z,17.10
2018-12-09T23:55:05.776Z,17.10
2018-12-09T23:57:34.351Z,17.10
